Time;durP1;ratioP1;P1;durP2;ratioP2;P2;SDS_P1;SDS_P2;PMS_P1;PMS_P2;Temp;Humidity;BMP_temperature;BMP_pressure;BME280_temperature;BME280_humidity;BME280_pressure;Samples;Min_cycle;Max_cycle;Signal;HPM_P1;HPM_P2
2023/01/04 00:01:35;;;;;;;1.17;0.60;;;;;;;;;;4486458;28;20100;-62
2023/01/04 00:03:45;;;;;;;0.63;0.40;;;;;;;;;;4486434;28;20069;-62
2023/01/04 00:05:56;;;;;;;0.65;0.50;;;;;;;;;;4486438;28;21077;-62
2023/01/04 00:08:07;;;;;;;0.30;0.30;;;;;;;;;;4485727;28;20078;-62
2023/01/04 00:10:17;;;;;;;0.45;0.45;;;;;;;;;;4489902;28;20129;-60
2023/01/04 00:12:28;;;;;;;0.90;0.50;;;;;;;;;;4488325;28;20045;-61
2023/01/04 00:14:38;;;;;;;0.85;0.40;;;;;;;;;;4484709;28;20709;-61
2023/01/04 00:16:48;;;;;;;0.82;0.40;;;;;;;;;;4488739;28;20058;-60
2023/01/04 00:18:58;;;;;;;0.60;0.40;;;;;;;;;;4486357;28;20030;-61
2023/01/04 00:21:10;;;;;;;0.55;0.40;;;;;;;;;;4491471;28;20094;-61
2023/01/04 00:23:21;;;;;;;0.40;0.40;;;;;;;;;;4486579;28;20050;-61
2023/01/04 00:25:31;;;;;;;0.70;0.40;;;;;;;;;;4487065;28;20030;-61
2023/01/04 00:27:41;;;;;;;0.55;0.40;;;;;;;;;;4487343;28;20049;-60
2023/01/04 00:29:52;;;;;;;0.55;0.35;;;;;;;;;;4489176;28;20072;-61
2023/01/04 00:32:02;;;;;;;1.13;0.50;;;;;;;;;;4487010;28;20050;-61
2023/01/04 00:34:13;;;;;;;0.75;0.43;;;;;;;;;;4490374;28;20031;-62
2023/01/04 00:36:24;;;;;;;0.57;0.45;;;;;;;;;;4489192;28;20586;-61
2023/01/04 00:38:35;;;;;;;0.77;0.40;;;;;;;;;;4488170;28;20105;-61
2023/01/04 00:40:45;;;;;;;0.35;0.30;;;;;;;;;;4487206;28;20051;-61
2023/01/04 00:42:55;;;;;;;0.73;0.50;;;;;;;;;;4485714;28;20129;-61
2023/01/04 00:45:06;;;;;;;0.63;0.50;;;;;;;;;;4485322;28;20062;-62
2023/01/04 00:47:17;;;;;;;0.40;0.38;;;;;;;;;;4488684;28;20145;-61
2023/01/04 00:49:28;;;;;;;0.50;0.38;;;;;;;;;;4486490;28;20044;-61
2023/01/04 00:51:39;;;;;;;0.80;0.40;;;;;;;;;;4488043;28;20115;-61
2023/01/04 00:53:49;;;;;;;0.60;0.50;;;;;;;;;;4487561;28;20041;-62
2023/01/04 00:56:00;;;;;;;0.30;0.30;;;;;;;;;;4484325;28;20030;-61
2023/01/04 00:58:11;;;;;;;0.93;0.43;;;;;;;;;;4485969;28;20047;-61
2023/01/04 01:00:22;;;;;;;0.55;0.50;;;;;;;;;;4485903;28;20035;-61
2023/01/04 01:02:32;;;;;;;0.68;0.40;;;;;;;;;;4487753;28;20749;-62
2023/01/04 01:04:43;;;;;;;0.50;0.38;;;;;;;;;;4486166;28;20046;-61
2023/01/04 01:06:53;;;;;;;0.50;0.40;;;;;;;;;;4487570;28;20043;-61
2023/01/04 01:09:03;;;;;;;0.73;0.40;;;;;;;;;;4487880;28;20263;-61
2023/01/04 01:11:14;;;;;;;0.60;0.30;;;;;;;;;;4484888;28;20077;-61
2023/01/04 01:13:24;;;;;;;0.73;0.40;;;;;;;;;;4485611;28;20047;-61
2023/01/04 01:15:34;;;;;;;0.75;0.43;;;;;;;;;;4486207;28;20080;-61
2023/01/04 01:17:44;;;;;;;1.10;0.52;;;;;;;;;;4487291;28;20474;-61
2023/01/04 01:19:55;;;;;;;0.63;0.40;;;;;;;;;;4486437;28;20047;-61
2023/01/04 01:22:05;;;;;;;0.43;0.40;;;;;;;;;;4485383;28;20447;-61
2023/01/04 01:24:17;;;;;;;0.50;0.40;;;;;;;;;;4487355;28;20034;-61
2023/01/04 01:26:27;;;;;;;0.40;0.40;;;;;;;;;;4486526;28;20600;-61
2023/01/04 01:28:37;;;;;;;0.95;0.40;;;;;;;;;;4485238;28;20045;-61
2023/01/04 01:30:48;;;;;;;0.60;0.40;;;;;;;;;;4487116;28;20105;-61
2023/01/04 01:32:58;;;;;;;1.13;0.40;;;;;;;;;;4484796;28;20388;-61
2023/01/04 01:35:08;;;;;;;0.35;0.30;;;;;;;;;;4486480;28;20039;-61
2023/01/04 01:37:18;;;;;;;0.30;0.30;;;;;;;;;;4485869;28;20039;-62
2023/01/04 01:39:29;;;;;;;0.80;0.50;;;;;;;;;;4487435;28;20155;-61
2023/01/04 01:41:39;;;;;;;0.60;0.40;;;;;;;;;;4487444;28;20733;-61
2023/01/04 01:43:49;;;;;;;0.50;0.40;;;;;;;;;;4486604;28;20035;-61
2023/01/04 01:46:00;;;;;;;0.77;0.47;;;;;;;;;;4489670;28;20495;-60
2023/01/04 01:48:13;;;;;;;0.50;0.40;;;;;;;;;;4485287;28;20054;-61
2023/01/04 01:50:26;;;;;;;0.55;0.40;;;;;;;;;;4488734;28;20120;-61
2023/01/04 01:52:37;;;;;;;0.40;0.40;;;;;;;;;;4483128;28;20043;-60
2023/01/04 01:54:54;;;;;;;0.35;0.32;;;;;;;;;;4487607;28;20030;-62
2023/01/04 01:57:06;;;;;;;0.40;0.40;;;;;;;;;;4484935;28;20101;-61
2023/01/04 01:59:17;;;;;;;0.30;0.30;;;;;;;;;;4483793;28;20680;-61
2023/01/04 02:01:27;;;;;;;1.23;0.50;;;;;;;;;;4486947;28;20112;-61
2023/01/04 02:03:39;;;;;;;1.20;0.40;;;;;;;;;;4488834;28;20073;-63
2023/01/04 02:05:51;;;;;;;0.52;0.47;;;;;;;;;;4485296;28;20585;-61
2023/01/04 02:08:01;;;;;;;1.10;0.45;;;;;;;;;;4485658;28;20046;-60
2023/01/04 02:10:12;;;;;;;0.52;0.40;;;;;;;;;;4486805;28;20033;-61
2023/01/04 02:12:23;;;;;;;0.40;0.40;;;;;;;;;;4489365;28;20050;-61
2023/01/04 02:14:34;;;;;;;0.90;0.43;;;;;;;;;;4484857;28;20073;-62
2023/01/04 02:16:52;;;;;;;0.75;0.43;;;;;;;;;;4486558;28;20139;-62
2023/01/04 02:19:21;;;;;;;0.77;0.40;;;;;;;;;;4486242;28;20038;-61
2023/01/04 02:21:52;;;;;;;0.60;0.40;;;;;;;;;;4483225;28;20073;-61
2023/01/04 02:24:02;;;;;;;0.50;0.43;;;;;;;;;;4467351;28;20053;-61
2023/01/04 02:26:21;;;;;;;0.40;0.40;;;;;;;;;;4485554;28;20034;-62
2023/01/04 02:28:50;;;;;;;0.60;0.40;;;;;;;;;;4486019;28;20620;-61
2023/01/04 02:31:03;;;;;;;0.47;0.38;;;;;;;;;;4483550;28;20063;-62
2023/01/04 02:33:17;;;;;;;0.52;0.35;;;;;;;;;;4484471;28;20486;-61
2023/01/04 02:35:31;;;;;;;0.80;0.50;;;;;;;;;;4476137;28;20047;-61
2023/01/04 02:38:10;;;;;;;0.40;0.30;;;;;;;;;;4485284;28;20498;-61
2023/01/04 02:40:33;;;;;;;0.22;0.22;;;;;;;;;;4435993;28;20091;-60
2023/01/04 02:45:12;;;;;;;0.52;0.40;;;;;;;;;;4484531;28;20039;-61
2023/01/04 02:52:23;;;;;;;0.45;0.30;;;;;;;;;;4488168;28;20039;-61
2023/01/04 02:54:33;;;;;;;0.40;0.40;;;;;;;;;;4485096;28;20408;-62
2023/01/04 02:56:50;;;;;;;0.52;0.35;;;;;;;;;;4484831;28;20453;-61
2023/01/04 02:59:19;;;;;;;0.50;0.30;;;;;;;;;;4485643;28;20046;-61
2023/01/04 03:06:39;;;;;;;0.77;0.43;;;;;;;;;;4487862;28;20042;-61
2023/01/04 03:08:49;;;;;;;0.80;0.35;;;;;;;;;;4485078;28;20034;-61
2023/01/04 03:12:30;;;;;;;0.65;0.45;;;;;;;;;;4486933;28;20049;-61
2023/01/04 03:13:39;;;;;;;0.40;0.40;;;;;;;;;;4486107;28;20041;-61
2023/01/04 03:15:55;;;;;;;0.77;0.40;;;;;;;;;;4483980;28;20038;-61
2023/01/04 03:18:24;;;;;;;0.80;0.30;;;;;;;;;;4484687;28;20035;-61
2023/01/04 03:20:35;;;;;;;0.30;0.30;;;;;;;;;;4484603;28;20581;-61
2023/01/04 03:35:44;;;;;;;0.35;0.35;;;;;;;;;;4484535;28;20140;-61
2023/01/04 03:48:52;;;;;;;0.60;0.30;;;;;;;;;;4482484;28;20046;-61
2023/01/04 03:51:06;;;;;;;0.50;0.30;;;;;;;;;;4484243;28;20833;-61
2023/01/04 03:53:17;;;;;;;5.05;4.03;;;;;;;;;;4487258;28;20234;-61
2023/01/04 03:55:29;;;;;;;0.40;0.40;;;;;;;;;;4483034;28;20152;-61
2023/01/04 03:57:40;;;;;;;0.45;0.43;;;;;;;;;;4485720;28;20034;-61
2023/01/04 04:00:01;;;;;;;0.30;0.22;;;;;;;;;;4486059;28;20593;-62
2023/01/04 04:02:13;;;;;;;0.25;0.25;;;;;;;;;;4483295;28;20030;-61
2023/01/04 04:09:21;;;;;;;0.43;0.30;;;;;;;;;;4485127;28;20077;-62
2023/01/04 04:11:31;;;;;;;0.52;0.30;;;;;;;;;;4483649;28;20122;-61
2023/01/04 04:13:41;;;;;;;0.20;0.20;;;;;;;;;;4486090;28;20047;-65
2023/01/04 04:15:52;;;;;;;0.20;0.20;;;;;;;;;;4482262;28;20081;-61
2023/01/04 04:18:02;;;;;;;0.25;0.25;;;;;;;;;;4485708;28;20058;-61
2023/01/04 04:20:13;;;;;;;0.20;0.20;;;;;;;;;;4482939;28;20053;-61
2023/01/04 04:22:23;;;;;;;0.30;0.30;;;;;;;;;;4484306;28;20081;-61
2023/01/04 04:24:33;;;;;;;0.68;0.30;;;;;;;;;;4485410;28;20047;-61
2023/01/04 04:26:44;;;;;;;0.28;0.20;;;;;;;;;;4482770;28;20700;-61
2023/01/04 04:28:54;;;;;;;0.38;0.28;;;;;;;;;;4485532;28;20034;-62
2023/01/04 04:31:04;;;;;;;0.10;0.10;;;;;;;;;;4487790;28;20050;-63
2023/01/04 04:33:14;;;;;;;0.20;0.20;;;;;;;;;;4486513;28;20085;-61
2023/01/04 04:35:25;;;;;;;0.20;0.10;;;;;;;;;;4489513;28;20034;-61
2023/01/04 04:37:36;;;;;;;0.22;0.20;;;;;;;;;;4489802;28;20541;-61
2023/01/04 04:39:46;;;;;;;0.43;0.30;;;;;;;;;;4488607;28;20881;-61
2023/01/04 04:41:56;;;;;;;0.20;0.20;;;;;;;;;;4484043;28;20562;-61
2023/01/04 04:44:10;;;;;;;0.10;0.10;;;;;;;;;;4477926;28;20043;-61
2023/01/04 04:46:20;;;;;;;0.10;0.10;;;;;;;;;;4489410;28;20908;-61
2023/01/04 04:48:31;;;;;;;0.20;0.20;;;;;;;;;;4484995;28;20234;-61
2023/01/04 04:50:41;;;;;;;0.10;0.10;;;;;;;;;;4487371;28;20133;-62
2023/01/04 04:52:51;;;;;;;0.10;0.10;;;;;;;;;;4486664;28;20473;-62
2023/01/04 04:55:02;;;;;;;0.13;0.10;;;;;;;;;;4486768;28;20038;-61
2023/01/04 04:57:12;;;;;;;0.13;0.10;;;;;;;;;;4489435;28;20089;-61
2023/01/04 04:59:22;;;;;;;0.03;0.03;;;;;;;;;;4485615;28;20043;-61
2023/01/04 05:01:33;;;;;;;0.20;0.20;;;;;;;;;;4472491;28;20047;-61
2023/01/04 05:03:43;;;;;;;0.32;0.20;;;;;;;;;;4485290;28;20051;-61
2023/01/04 05:05:53;;;;;;;0.32;0.20;;;;;;;;;;4486614;28;20081;-62
2023/01/04 05:08:04;;;;;;;0.20;0.20;;;;;;;;;;4486065;28;20038;-61
2023/01/04 05:10:14;;;;;;;0.20;0.20;;;;;;;;;;4487853;28;20038;-61
2023/01/04 05:14:53;;;;;;;0.10;0.10;;;;;;;;;;4487872;28;20042;-60
2023/01/04 05:17:03;;;;;;;0.10;0.10;;;;;;;;;;4485230;28;20038;-61
2023/01/04 05:19:14;;;;;;;0.20;0.20;;;;;;;;;;4485030;28;20088;-61
2023/01/04 05:21:24;;;;;;;0.10;0.10;;;;;;;;;;4485888;28;20038;-61
2023/01/04 05:23:35;;;;;;;0.22;0.22;;;;;;;;;;4486844;28;20047;-61
2023/01/04 05:25:49;;;;;;;0.80;0.80;;;;;;;;;;4487760;28;20031;-61
2023/01/04 05:28:00;;;;;;;0.28;0.17;;;;;;;;;;4485928;28;20132;-61
2023/01/04 05:32:43;;;;;;;0.10;0.10;;;;;;;;;;4486489;28;20033;-61
2023/01/04 05:34:53;;;;;;;0.20;0.20;;;;;;;;;;4490452;28;20031;-61
2023/01/04 05:37:03;;;;;;;0.20;0.20;;;;;;;;;;4487728;28;20097;-61
2023/01/04 05:39:14;;;;;;;0.25;0.25;;;;;;;;;;4483236;28;20034;-61
2023/01/04 05:43:53;;;;;;;0.20;0.20;;;;;;;;;;4487931;28;20077;-61
2023/01/04 05:46:03;;;;;;;0.10;0.10;;;;;;;;;;4487445;28;20104;-61
2023/01/04 05:48:13;;;;;;;0.25;0.10;;;;;;;;;;4485922;28;20062;-61
2023/01/04 05:50:24;;;;;;;0.20;0.20;;;;;;;;;;4488055;28;20438;-62
2023/01/04 05:52:35;;;;;;;0.28;0.20;;;;;;;;;;4488012;28;20038;-61
2023/01/04 05:54:45;;;;;;;0.30;0.30;;;;;;;;;;4486854;28;20034;-62
2023/01/04 05:56:56;;;;;;;0.20;0.20;;;;;;;;;;4485613;28;20038;-61
2023/01/04 05:59:06;;;;;;;0.10;0.10;;;;;;;;;;4485181;28;20114;-61
2023/01/04 06:01:16;;;;;;;0.20;0.20;;;;;;;;;;4485596;28;20177;-61
2023/01/04 06:03:26;;;;;;;0.28;0.20;;;;;;;;;;4486971;28;20042;-61
2023/01/04 06:05:37;;;;;;;0.10;0.10;;;;;;;;;;4489472;28;20042;-62
2023/01/04 06:07:47;;;;;;;0.10;0.10;;;;;;;;;;4486287;28;20487;-62
2023/01/04 06:09:57;;;;;;;0.10;0.10;;;;;;;;;;4487326;28;20032;-61
2023/01/04 06:12:08;;;;;;;0.10;0.10;;;;;;;;;;4487091;28;20087;-62
2023/01/04 06:14:19;;;;;;;0.20;0.20;;;;;;;;;;4484811;28;20045;-61
2023/01/04 06:16:29;;;;;;;0.15;0.15;;;;;;;;;;4484657;28;20130;-61
2023/01/04 06:18:39;;;;;;;0.10;0.10;;;;;;;;;;4487799;28;20042;-61
2023/01/04 06:20:50;;;;;;;0.17;0.10;;;;;;;;;;4488539;28;20068;-62
2023/01/04 06:23:00;;;;;;;0.10;0.10;;;;;;;;;;4486570;28;20046;-61
2023/01/04 06:25:11;;;;;;;0.10;0.10;;;;;;;;;;4484957;28;20032;-61
2023/01/04 06:27:21;;;;;;;0.13;0.10;;;;;;;;;;4485985;28;20065;-62
2023/01/04 06:29:31;;;;;;;0.10;0.10;;;;;;;;;;4486413;28;20054;-61
2023/01/04 06:31:42;;;;;;;0.10;0.10;;;;;;;;;;4486632;28;20034;-61
2023/01/04 06:33:52;;;;;;;0.20;0.20;;;;;;;;;;4486680;28;20058;-61
2023/01/04 06:36:02;;;;;;;0.10;0.10;;;;;;;;;;4486385;28;20035;-62
2023/01/04 06:38:13;;;;;;;0.20;0.20;;;;;;;;;;4483826;28;20046;-61
2023/01/04 06:40:23;;;;;;;0.10;0.10;;;;;;;;;;4487027;28;20050;-62
2023/01/04 06:42:45;;;;;;;0.10;0.10;;;;;;;;;;4485707;28;20674;-61
2023/01/04 06:44:56;;;;;;;0.10;0.10;;;;;;;;;;4487801;28;20113;-62
2023/01/04 06:47:06;;;;;;;0.10;0.10;;;;;;;;;;4483433;28;20154;-60
2023/01/04 06:49:16;;;;;;;0.20;0.10;;;;;;;;;;4484749;28;20535;-61
2023/01/04 06:51:27;;;;;;;0.38;0.10;;;;;;;;;;4482143;28;20416;-61
2023/01/04 06:53:37;;;;;;;0.10;0.10;;;;;;;;;;4487026;28;20038;-63
2023/01/04 06:55:47;;;;;;;0.20;0.20;;;;;;;;;;4489275;28;20038;-61
2023/01/04 06:57:57;;;;;;;0.10;0.10;;;;;;;;;;4485764;28;20149;-61
2023/01/04 07:00:08;;;;;;;0.10;0.10;;;;;;;;;;4485510;28;20054;-61
2023/01/04 07:02:18;;;;;;;0.10;0.10;;;;;;;;;;4477174;28;20053;-61
2023/01/04 07:04:29;;;;;;;0.10;0.10;;;;;;;;;;4487303;28;20039;-61
2023/01/04 07:06:39;;;;;;;0.00;0.00;;;;;;;;;;4486638;28;20446;-61
2023/01/04 07:08:49;;;;;;;0.10;0.10;;;;;;;;;;4484735;28;20372;-61
2023/01/04 07:11:00;;;;;;;0.20;0.20;;;;;;;;;;4486774;28;20053;-61
2023/01/04 07:13:10;;;;;;;0.20;0.20;;;;;;;;;;4483609;28;20030;-61
2023/01/04 07:15:21;;;;;;;0.30;0.20;;;;;;;;;;4486779;28;20065;-62
2023/01/04 07:17:31;;;;;;;0.20;0.20;;;;;;;;;;4484948;28;20046;-61
2023/01/04 07:19:42;;;;;;;0.20;0.20;;;;;;;;;;4486373;28;20034;-63
2023/01/04 07:21:52;;;;;;;0.17;0.17;;;;;;;;;;4484906;28;20126;-61
2023/01/04 07:24:03;;;;;;;0.20;0.20;;;;;;;;;;4485197;28;20080;-61
2023/01/04 07:26:13;;;;;;;0.40;0.17;;;;;;;;;;4486516;28;20931;-61
2023/01/04 07:31:09;;;;;;;0.20;0.10;;;;;;;;;;4467505;28;20040;-61
2023/01/04 07:33:19;;;;;;;0.20;0.20;;;;;;;;;;4481610;28;20054;-61
2023/01/04 07:35:30;;;;;;;0.20;0.20;;;;;;;;;;4487175;28;20034;-61
2023/01/04 07:37:41;;;;;;;0.13;0.13;;;;;;;;;;4484227;28;20050;-60
2023/01/04 07:39:52;;;;;;;0.10;0.10;;;;;;;;;;4484889;28;20035;-61
2023/01/04 07:42:02;;;;;;;0.50;0.13;;;;;;;;;;4484837;28;20035;-61
2023/01/04 07:44:13;;;;;;;0.10;0.10;;;;;;;;;;4488895;28;20053;-62
2023/01/04 07:46:24;;;;;;;0.10;0.10;;;;;;;;;;4485377;28;20049;-64
2023/01/04 07:48:34;;;;;;;0.10;0.10;;;;;;;;;;4485067;28;20034;-62
2023/01/04 07:50:45;;;;;;;0.10;0.10;;;;;;;;;;4485162;28;20030;-61
2023/01/04 07:52:56;;;;;;;0.10;0.10;;;;;;;;;;4483608;28;20085;-61
2023/01/04 07:55:06;;;;;;;0.20;0.10;;;;;;;;;;4488250;28;20034;-61
2023/01/04 07:57:16;;;;;;;0.10;0.10;;;;;;;;;;4484069;28;20087;-60
2023/01/04 07:59:27;;;;;;;0.10;0.10;;;;;;;;;;4486386;28;20066;-61
2023/01/04 08:01:37;;;;;;;0.10;0.10;;;;;;;;;;4485245;28;20101;-61
2023/01/04 08:03:48;;;;;;;0.10;0.10;;;;;;;;;;4486649;28;20044;-61
2023/01/04 08:06:01;;;;;;;0.10;0.10;;;;;;;;;;4486750;28;20031;-61
2023/01/04 08:08:11;;;;;;;0.10;0.10;;;;;;;;;;4488328;28;20581;-62
2023/01/04 08:10:22;;;;;;;0.10;0.10;;;;;;;;;;4490029;28;20026;-61
2023/01/04 08:12:32;;;;;;;0.10;0.10;;;;;;;;;;4488105;28;20204;-62
2023/01/04 08:14:42;;;;;;;0.10;0.10;;;;;;;;;;4470304;28;20523;-60
2023/01/04 08:16:53;;;;;;;0.20;0.15;;;;;;;;;;4489745;28;20486;-61
2023/01/04 08:19:14;;;;;;;0.10;0.10;;;;;;;;;;4487912;28;20037;-62
2023/01/04 08:21:24;;;;;;;0.20;0.13;;;;;;;;;;4486129;28;20751;-61
2023/01/04 08:23:36;;;;;;;0.32;0.10;;;;;;;;;;4488936;28;20055;-61
2023/01/04 08:25:46;;;;;;;0.73;0.17;;;;;;;;;;4488685;28;20019;-61
2023/01/04 08:27:57;;;;;;;0.30;0.10;;;;;;;;;;4485860;22;20467;-61
2023/01/04 08:30:07;;;;;;;0.10;0.10;;;;;;;;;;4542194;28;20041;-62
2023/01/04 08:32:18;;;;;;;0.10;0.10;;;;;;;;;;4543985;28;20040;-61
2023/01/04 08:34:28;;;;;;;0.10;0.10;;;;;;;;;;4543885;28;20036;-61
2023/01/04 08:36:49;;;;;;;0.10;0.10;;;;;;;;;;4542602;28;20110;-61
2023/01/04 08:39:04;;;;;;;0.20;0.20;;;;;;;;;;4536008;28;20037;-61
2023/01/04 08:41:15;;;;;;;0.10;0.10;;;;;;;;;;4531634;28;20041;-61
2023/01/04 08:43:25;;;;;;;0.10;0.10;;;;;;;;;;4530588;28;20032;-61
2023/01/04 08:45:35;;;;;;;0.20;0.20;;;;;;;;;;4531344;28;20036;-62
2023/01/04 08:47:46;;;;;;;0.10;0.10;;;;;;;;;;4531348;28;20045;-61
2023/01/04 08:49:56;;;;;;;0.10;0.10;;;;;;;;;;4531146;28;20025;-61
2023/01/04 08:52:08;;;;;;;0.10;0.10;;;;;;;;;;4530696;28;20075;-63
2023/01/04 08:54:18;;;;;;;0.10;0.10;;;;;;;;;;4539094;28;20040;-62
2023/01/04 08:56:28;;;;;;;0.10;0.10;;;;;;;;;;4531995;28;20477;-61
2023/01/04 08:58:39;;;;;;;0.10;0.10;;;;;;;;;;4532565;28;20069;-61
2023/01/04 09:00:49;;;;;;;0.10;0.10;;;;;;;;;;4541125;28;20037;-61
2023/01/04 09:03:00;;;;;;;0.10;0.10;;;;;;;;;;4531395;28;20037;-61
2023/01/04 09:05:10;;;;;;;0.10;0.10;;;;;;;;;;4528948;28;20032;-61
2023/01/04 09:07:20;;;;;;;0.10;0.10;;;;;;;;;;4532625;28;20073;-61
2023/01/04 09:09:31;;;;;;;0.10;0.10;;;;;;;;;;4530891;28;20030;-61
2023/01/04 09:11:41;;;;;;;0.10;0.10;;;;;;;;;;4531138;28;20037;-61
2023/01/04 09:13:56;;;;;;;0.00;0.00;;;;;;;;;;4532565;28;20038;-63
2023/01/04 09:16:07;;;;;;;0.10;0.10;;;;;;;;;;4541092;28;20029;-61
2023/01/04 09:18:18;;;;;;;0.10;0.10;;;;;;;;;;4536239;28;20041;-62
2023/01/04 09:20:28;;;;;;;0.10;0.10;;;;;;;;;;4536678;28;20485;-61
2023/01/04 09:22:38;;;;;;;0.20;0.20;;;;;;;;;;4533802;28;20072;-61
2023/01/04 09:24:49;;;;;;;0.10;0.10;;;;;;;;;;4530603;28;20124;-62
2023/01/04 09:26:59;;;;;;;0.08;0.08;;;;;;;;;;4534647;28;20034;-61
2023/01/04 09:29:10;;;;;;;0.22;0.20;;;;;;;;;;4529723;28;20099;-62
2023/01/04 09:31:21;;;;;;;0.20;0.20;;;;;;;;;;4536189;28;20044;-61
2023/01/04 09:33:32;;;;;;;0.20;0.20;;;;;;;;;;4531870;28;20057;-61
2023/01/04 09:35:42;;;;;;;0.28;0.20;;;;;;;;;;4531016;28;20916;-61
2023/01/04 09:37:53;;;;;;;0.30;0.20;;;;;;;;;;4531216;28;20055;-61
2023/01/04 09:40:04;;;;;;;0.20;0.20;;;;;;;;;;4540874;28;20045;-61
2023/01/04 09:42:29;;;;;;;0.20;0.20;;;;;;;;;;4530855;28;20049;-61
2023/01/04 09:44:40;;;;;;;0.30;0.20;;;;;;;;;;4531578;28;20124;-61
2023/01/04 09:46:57;;;;;;;0.20;0.20;;;;;;;;;;4530882;28;20558;-62
2023/01/04 09:49:16;;;;;;;0.40;0.40;;;;;;;;;;4531278;28;20029;-62
2023/01/04 09:51:33;;;;;;;0.40;0.40;;;;;;;;;;4531688;28;20048;-61
2023/01/04 09:53:46;;;;;;;0.30;0.30;;;;;;;;;;4532473;28;20029;-62
2023/01/04 09:56:00;;;;;;;0.70;0.70;;;;;;;;;;4531594;28;20691;-62
2023/01/04 09:58:16;;;;;;;0.50;0.50;;;;;;;;;;4532777;28;20088;-61
2023/01/04 10:00:38;;;;;;;0.68;0.50;;;;;;;;;;4534989;28;20057;-61
2023/01/04 10:02:51;;;;;;;0.30;0.30;;;;;;;;;;4530243;28;20045;-61
2023/01/04 10:05:02;;;;;;;0.45;0.45;;;;;;;;;;4532079;28;20036;-61
2023/01/04 10:07:32;;;;;;;0.30;0.30;;;;;;;;;;4530337;28;20580;-61
2023/01/04 10:09:43;;;;;;;0.17;0.17;;;;;;;;;;4530190;28;20105;-61
2023/01/04 10:11:56;;;;;;;0.32;0.32;;;;;;;;;;4531316;28;20036;-61
2023/01/04 10:14:16;;;;;;;0.50;0.50;;;;;;;;;;4529219;28;20037;-60
2023/01/04 10:16:41;;;;;;;0.40;0.40;;;;;;;;;;4529671;28;20674;-61
2023/01/04 10:19:04;;;;;;;0.30;0.30;;;;;;;;;;4530997;28;20049;-62
2023/01/04 10:21:15;;;;;;;0.40;0.40;;;;;;;;;;4537575;28;20040;-59
2023/01/04 10:23:37;;;;;;;0.20;0.20;;;;;;;;;;4531729;28;20048;-62
2023/01/04 10:25:59;;;;;;;0.30;0.30;;;;;;;;;;4532905;28;20047;-66
2023/01/04 10:28:16;;;;;;;0.20;0.15;;;;;;;;;;4529370;28;20053;-64
2023/01/04 10:30:26;;;;;;;0.10;0.10;;;;;;;;;;4530174;28;20616;-65
2023/01/04 10:32:41;;;;;;;0.10;0.10;;;;;;;;;;4520543;28;20061;-65
2023/01/04 10:34:52;;;;;;;0.10;0.10;;;;;;;;;;4529137;28;20045;-66
2023/01/04 10:37:12;;;;;;;0.10;0.10;;;;;;;;;;4531480;28;20500;-66
2023/01/04 10:39:24;;;;;;;0.10;0.10;;;;;;;;;;4528801;28;20099;-67
2023/01/04 10:41:37;;;;;;;0.17;0.17;;;;;;;;;;4529789;28;20520;-64
2023/01/04 10:43:55;;;;;;;0.10;0.10;;;;;;;;;;4529692;28;20065;-60
2023/01/04 10:46:24;;;;;;;0.13;0.10;;;;;;;;;;4530863;28;20549;-60
2023/01/04 10:48:55;;;;;;;0.10;0.10;;;;;;;;;;4528372;28;20494;-61
2023/01/04 10:51:06;;;;;;;0.10;0.10;;;;;;;;;;4532729;28;20030;-60
2023/01/04 10:53:34;;;;;;;0.10;0.10;;;;;;;;;;4529872;28;20027;-60
2023/01/04 10:55:49;;;;;;;0.10;0.10;;;;;;;;;;4529661;28;20029;-60
2023/01/04 10:58:03;;;;;;;0.50;0.50;;;;;;;;;;4527080;28;20049;-60
2023/01/04 11:00:16;;;;;;;0.30;0.30;;;;;;;;;;4528869;28;20536;-59
2023/01/04 11:02:42;;;;;;;0.20;0.20;;;;;;;;;;4530242;28;20053;-59
2023/01/04 11:04:59;;;;;;;0.20;0.20;;;;;;;;;;4529030;28;20701;-60
2023/01/04 11:07:09;;;;;;;0.38;0.38;;;;;;;;;;4529234;28;20559;-61
2023/01/04 11:09:25;;;;;;;0.30;0.30;;;;;;;;;;4528401;28;20086;-61
2023/01/04 11:11:42;;;;;;;0.95;0.95;;;;;;;;;;4538157;28;20119;-62
2023/01/04 11:13:52;;;;;;;0.20;0.20;;;;;;;;;;4529540;28;20725;-61
2023/01/04 11:16:04;;;;;;;0.20;0.20;;;;;;;;;;4529061;28;20897;-60
2023/01/04 11:18:14;;;;;;;0.28;0.25;;;;;;;;;;4527805;28;20650;-60
2023/01/04 11:20:25;;;;;;;0.15;0.15;;;;;;;;;;4530604;28;20033;-62
2023/01/04 11:22:42;;;;;;;0.20;0.20;;;;;;;;;;4537272;28;20489;-61
2023/01/04 11:24:56;;;;;;;0.20;0.20;;;;;;;;;;4528926;28;20025;-61
2023/01/04 11:27:12;;;;;;;0.17;0.10;;;;;;;;;;4531434;28;20041;-61
2023/01/04 11:29:28;;;;;;;0.25;0.25;;;;;;;;;;4529062;28;20437;-61
2023/01/04 11:31:45;;;;;;;0.13;0.13;;;;;;;;;;4530344;28;20040;-61
2023/01/04 11:33:55;;;;;;;;;;;;;;;;;;4531018;28;20028;-61
2023/01/04 11:36:06;;;;;;;0.20;0.20;;;;;;;;;;4544011;28;19960;-60
2023/01/04 11:38:21;;;;;;;0.15;0.15;;;;;;;;;;4529251;28;20124;-61
2023/01/04 11:40:32;;;;;;;0.20;0.20;;;;;;;;;;4539756;28;20025;-60
2023/01/04 11:42:43;;;;;;;0.50;0.50;;;;;;;;;;4534192;28;20045;-60
2023/01/04 11:44:57;;;;;;;0.50;0.50;;;;;;;;;;4533444;28;21096;-61
2023/01/04 11:47:15;;;;;;;0.40;0.40;;;;;;;;;;4530085;28;20128;-61
2023/01/04 11:49:32;;;;;;;0.40;0.40;;;;;;;;;;4534489;28;20084;-60
2023/01/04 11:51:43;;;;;;;0.30;0.30;;;;;;;;;;4533712;28;20042;-60
2023/01/04 11:53:56;;;;;;;0.28;0.28;;;;;;;;;;4529480;28;20029;-61
2023/01/04 11:56:08;;;;;;;0.20;0.20;;;;;;;;;;4529136;28;20413;-60
2023/01/04 11:58:18;;;;;;;0.30;0.28;;;;;;;;;;4529054;28;20363;-60
2023/01/04 12:00:28;;;;;;;0.20;0.20;;;;;;;;;;4529219;28;20546;-59
2023/01/04 12:02:39;;;;;;;0.30;0.30;;;;;;;;;;4533356;28;20405;-59
2023/01/04 12:04:50;;;;;;;0.50;0.50;;;;;;;;;;4528592;28;20048;-61
2023/01/04 12:07:08;;;;;;;0.30;0.30;;;;;;;;;;4538864;28;20516;-61
2023/01/04 12:09:19;;;;;;;0.75;0.75;;;;;;;;;;4529600;28;20524;-61
2023/01/04 12:11:32;;;;;;;0.40;0.40;;;;;;;;;;4528602;28;20037;-61
2023/01/04 12:13:44;;;;;;;0.60;0.47;;;;;;;;;;4529885;28;20033;-60
2023/01/04 12:16:15;;;;;;;0.35;0.35;;;;;;;;;;4530405;28;20029;-61
2023/01/04 12:18:27;;;;;;;0.30;0.30;;;;;;;;;;4528336;28;20602;-61
2023/01/04 12:20:37;;;;;;;0.30;0.30;;;;;;;;;;4537349;28;20052;-61
2023/01/04 12:22:48;;;;;;;0.25;0.25;;;;;;;;;;4529635;28;20053;-61
2023/01/04 12:24:58;;;;;;;0.30;0.30;;;;;;;;;;4530293;28;20460;-61
2023/01/04 12:27:12;;;;;;;0.60;0.60;;;;;;;;;;4529163;28;20076;-61
2023/01/04 12:29:22;;;;;;;0.40;0.40;;;;;;;;;;4529440;28;20043;-60
2023/01/04 12:31:32;;;;;;;0.80;0.57;;;;;;;;;;4529733;28;20098;-60
2023/01/04 12:33:43;;;;;;;0.40;0.40;;;;;;;;;;4529620;28;20040;-60
2023/01/04 12:36:20;;;;;;;0.43;0.43;;;;;;;;;;4529785;28;20466;-60
2023/01/04 12:38:49;;;;;;;0.40;0.40;;;;;;;;;;4529356;28;20053;-61
2023/01/04 12:40:59;;;;;;;0.43;0.43;;;;;;;;;;4544470;28;20048;-62
2023/01/04 12:43:24;;;;;;;0.43;0.35;;;;;;;;;;4529823;28;20052;-61
2023/01/04 12:45:34;;;;;;;0.65;0.50;;;;;;;;;;4538504;28;20159;-61
2023/01/04 12:50:18;;;;;;;0.52;0.40;;;;;;;;;;4530304;28;20863;-61
2023/01/04 12:52:29;;;;;;;0.68;0.40;;;;;;;;;;4528303;28;20037;-61
2023/01/04 12:54:46;;;;;;;0.40;0.40;;;;;;;;;;4528758;28;20490;-62
2023/01/04 12:57:15;;;;;;;0.30;0.30;;;;;;;;;;4529787;28;20048;-61
2023/01/04 12:59:33;;;;;;;0.30;0.30;;;;;;;;;;4537788;28;20187;-61
2023/01/04 13:02:03;;;;;;;0.52;0.47;;;;;;;;;;4528702;28;20050;-61
2023/01/04 13:04:25;;;;;;;0.40;0.40;;;;;;;;;;4530158;28;20131;-61
2023/01/04 13:06:41;;;;;;;0.30;0.30;;;;;;;;;;4528709;28;20084;-61
2023/01/04 13:08:52;;;;;;;0.40;0.40;;;;;;;;;;4527859;28;20044;-60
2023/01/04 13:11:03;;;;;;;0.55;0.30;;;;;;;;;;4529037;28;20048;-61
2023/01/04 13:13:36;;;;;;;0.50;0.50;;;;;;;;;;4529469;28;21005;-61
2023/01/04 13:15:46;;;;;;;0.32;0.32;;;;;;;;;;4529176;28;21017;-61
2023/01/04 13:17:56;;;;;;;0.60;0.50;;;;;;;;;;4527610;28;20044;-61
2023/01/04 13:20:17;;;;;;;0.68;0.60;;;;;;;;;;4528632;28;20075;-61
2023/01/04 13:22:29;;;;;;;0.60;0.60;;;;;;;;;;4529491;28;20045;-61
2023/01/04 13:24:42;;;;;;;0.43;0.40;;;;;;;;;;4528201;28;20086;-61
2023/01/04 13:26:53;;;;;;;0.60;0.60;;;;;;;;;;4528105;28;20243;-61
2023/01/04 13:29:04;;;;;;;0.70;0.70;;;;;;;;;;4527567;28;20083;-61
2023/01/04 13:31:14;;;;;;;0.70;0.70;;;;;;;;;;4526759;28;20052;-61
2023/01/04 13:33:25;;;;;;;0.65;0.65;;;;;;;;;;4528057;28;20048;-61
2023/01/04 13:35:35;;;;;;;0.80;0.80;;;;;;;;;;4526605;28;20183;-61
2023/01/04 13:37:47;;;;;;;0.30;0.30;;;;;;;;;;4528682;28;20025;-61
2023/01/04 13:40:00;;;;;;;0.40;0.40;;;;;;;;;;4528244;28;20622;-61
2023/01/04 13:42:17;;;;;;;0.55;0.50;;;;;;;;;;4529599;28;20627;-62
2023/01/04 13:44:27;;;;;;;;;;;;;;;;;;4529427;28;20026;-60
2023/01/04 13:46:40;;;;;;;0.60;0.50;;;;;;;;;;4527076;28;20460;-61
2023/01/04 13:48:52;;;;;;;0.50;0.50;;;;;;;;;;4528991;28;20854;-61
2023/01/04 13:51:23;;;;;;;0.60;0.60;;;;;;;;;;4528699;28;20037;-60
2023/01/04 13:53:33;;;;;;;0.60;0.60;;;;;;;;;;4528258;28;20548;-64
2023/01/04 13:55:48;;;;;;;0.38;0.38;;;;;;;;;;4528476;28;20061;-61
2023/01/04 13:58:00;;;;;;;0.40;0.40;;;;;;;;;;4529888;28;20037;-64
2023/01/04 14:00:12;;;;;;;0.40;0.40;;;;;;;;;;4528932;28;20084;-63
2023/01/04 14:02:22;;;;;;;0.60;0.45;;;;;;;;;;4525934;28;20624;-61
2023/01/04 14:04:32;;;;;;;0.50;0.50;;;;;;;;;;4527918;28;20049;-61
2023/01/04 14:06:44;;;;;;;0.52;0.30;;;;;;;;;;4528723;28;20123;-61
2023/01/04 14:09:03;;;;;;;0.30;0.30;;;;;;;;;;4528147;28;20041;-61
2023/01/04 14:11:57;;;;;;;0.40;0.40;;;;;;;;;;4528399;28;20898;-61